createdAt,value
2019-05-16T00:01:13.322Z,21.97
2019-05-16T00:03:43.826Z,22.87
2019-05-16T00:06:14.271Z,22.50
2019-05-16T00:08:44.766Z,24.17
2019-05-16T00:11:15.313Z,25.97
2019-05-16T00:13:45.938Z,26.20
2019-05-16T00:16:18.643Z,25.63
2019-05-16T00:18:49.028Z,24.60
2019-05-16T00:21:19.626Z,24.27
2019-05-16T00:23:50.131Z,26.47
2019-05-16T00:26:20.788Z,25.50
2019-05-16T00:28:51.383Z,28.43
2019-05-16T00:31:21.938Z,25.23
2019-05-16T00:33:52.526Z,27.40
2019-05-16T00:36:22.936Z,26.40
2019-05-16T00:38:53.456Z,24.83
2019-05-16T00:41:23.977Z,30.17
2019-05-16T00:43:54.646Z,31.57
2019-05-16T00:46:25.157Z,29.73
2019-05-16T00:48:55.580Z,31.70
2019-05-16T00:51:26.158Z,33.47
2019-05-16T00:53:58.696Z,31.23
2019-05-16T00:56:31.373Z,30.77
2019-05-16T00:59:02.427Z,37.57
2019-05-16T01:01:32.993Z,33.53
2019-05-16T01:04:03.701Z,31.37
2019-05-16T01:06:34.288Z,36.13
2019-05-16T01:09:08.652Z,35.90
2019-05-16T01:11:39.481Z,35.77
2019-05-16T01:14:10.049Z,35.87
2019-05-16T01:16:40.638Z,34.27
2019-05-16T01:19:11.161Z,32.97
2019-05-16T01:21:41.809Z,34.10
2019-05-16T01:24:12.464Z,36.10
2019-05-16T01:26:43.203Z,33.87
2019-05-16T01:29:13.762Z,36.37
2019-05-16T01:31:44.387Z,37.43
2019-05-16T01:34:14.936Z,35.70
2019-05-16T01:36:45.414Z,34.07
2019-05-16T01:39:18.158Z,36.87
2019-05-16T01:41:48.233Z,39.97
2019-05-16T01:44:18.831Z,39.23
2019-05-16T01:46:49.516Z,40.77
2019-05-16T01:49:19.944Z,40.47
2019-05-16T01:51:50.456Z,39.27
2019-05-16T01:54:21.028Z,44.40
2019-05-16T01:56:51.671Z,43.87
2019-05-16T01:59:22.208Z,42.83
2019-05-16T02:01:52.837Z,46.97
2019-05-16T02:04:23.437Z,44.23
2019-05-16T02:06:55.067Z,46.53
2019-05-16T02:09:27.918Z,52.60
2019-05-16T02:11:58.880Z,44.90
2019-05-16T02:14:30.026Z,42.07
2019-05-16T02:17:00.548Z,43.70
2019-05-16T02:19:31.128Z,52.47
2019-05-16T02:22:01.699Z,45.83
2019-05-16T02:24:32.158Z,46.20
2019-05-16T02:27:02.719Z,54.57
2019-05-16T02:29:33.421Z,41.33
2019-05-16T02:32:03.955Z,46.13
2019-05-16T02:34:34.532Z,40.97
2019-05-16T02:37:24.059Z,38.97
2019-05-16T02:39:37.321Z,58.00
2019-05-16T02:42:11.518Z,53.80
2019-05-16T02:44:41.168Z,62.73
2019-05-16T02:47:12.152Z,56.63
2019-05-16T02:49:42.681Z,61.03
2019-05-16T02:52:13.124Z,61.03
2019-05-16T02:54:43.831Z,72.53
2019-05-16T02:57:14.438Z,58.30
2019-05-16T02:59:44.895Z,64.40
2019-05-16T03:02:15.679Z,55.00
2019-05-16T03:04:46.530Z,49.63
2019-05-16T03:07:36.782Z,54.37
2019-05-16T03:09:51.392Z,64.93
2019-05-16T03:12:23.758Z,56.13
2019-05-16T03:14:54.787Z,54.77
2019-05-16T03:17:27.048Z,70.30
2019-05-16T03:20:01.417Z,48.23
2019-05-16T03:22:32.551Z,58.93
2019-05-16T03:25:03.218Z,57.33
2019-05-16T03:27:33.758Z,101.60
2019-05-16T03:30:04.381Z,71.63
2019-05-16T03:32:35.055Z,62.37
2019-05-16T03:35:07.514Z,96.90
2019-05-16T03:37:54.027Z,74.07
2019-05-16T03:40:12.238Z,75.13
2019-05-16T03:42:42.739Z,71.13
2019-05-16T03:45:13.422Z,52.80
2019-05-16T03:47:44.289Z,61.87
2019-05-16T03:50:15.054Z,65.60
2019-05-16T03:52:45.568Z,66.43
2019-05-16T03:55:16.353Z,70.37
2019-05-16T03:57:46.923Z,59.00
2019-05-16T04:00:20.984Z,53.93
2019-05-16T04:02:52.252Z,59.47
2019-05-16T04:05:22.208Z,51.87
2019-05-16T04:08:09.994Z,56.73
2019-05-16T04:10:24.987Z,59.07
2019-05-16T04:12:55.615Z,41.63
2019-05-16T04:15:26.284Z,50.43
2019-05-16T04:17:56.818Z,46.73
2019-05-16T04:20:30.311Z,39.77
2019-05-16T04:23:01.123Z,45.87
2019-05-16T04:25:31.870Z,38.90
2019-05-16T04:28:02.571Z,45.33
2019-05-16T04:30:33.172Z,71.50
2019-05-16T04:33:03.673Z,35.70
2019-05-16T04:35:34.385Z,32.57
2019-05-16T04:38:04.988Z,34.63
2019-05-16T04:40:38.225Z,29.87
2019-05-16T04:43:07.903Z,37.50
2019-05-16T04:45:41.413Z,33.97
2019-05-16T04:48:11.434Z,31.73
2019-05-16T04:50:42.220Z,26.63
2019-05-16T04:53:12.844Z,26.67
2019-05-16T04:55:43.638Z,31.07
2019-05-16T04:58:14.286Z,33.90
2019-05-16T05:00:45.167Z,26.43
2019-05-16T05:03:16.128Z,30.33
2019-05-16T05:05:46.945Z,25.37
2019-05-16T05:08:17.662Z,24.07
2019-05-16T05:10:50.999Z,20.60
2019-05-16T05:13:22.145Z,23.87
2019-05-16T05:15:53.672Z,19.17
2019-05-16T05:18:24.343Z,24.70
2019-05-16T05:20:55.003Z,17.67
2019-05-16T05:23:25.548Z,17.43
2019-05-16T05:25:56.016Z,18.00
2019-05-16T05:28:26.747Z,15.53
2019-05-16T05:30:59.537Z,14.47
2019-05-16T05:33:30.505Z,11.83
2019-05-16T05:36:12.378Z,17.27
2019-05-16T05:38:55.567Z,14.07
2019-05-16T05:41:23.486Z,21.73
2019-05-16T05:43:59.775Z,16.97
2019-05-16T05:46:31.664Z,12.30
2019-05-16T05:49:02.439Z,11.17
2019-05-16T05:51:35.516Z,10.80
2019-05-16T05:54:07.071Z,10.47
2019-05-16T05:56:41.827Z,9.70
2019-05-16T05:59:15.296Z,10.33
2019-05-16T06:01:51.368Z,10.77
2019-05-16T06:04:24.992Z,9.13
2019-05-16T06:07:01.220Z,9.07
2019-05-16T06:09:34.430Z,12.90
2019-05-16T06:12:10.028Z,19.40
2019-05-16T06:14:41.853Z,6.83
2019-05-16T06:17:14.601Z,10.87
2019-05-16T06:19:45.234Z,12.03
2019-05-16T06:22:17.721Z,8.40
2019-05-16T06:25:00.909Z,7.77
2019-05-16T06:27:31.754Z,10.90
2019-05-16T06:30:07.886Z,5.87
2019-05-16T06:32:41.341Z,11.10
2019-05-16T06:35:15.242Z,31.80
2019-05-16T06:37:51.091Z,8.23
2019-05-16T06:40:29.433Z,13.27
2019-05-16T06:43:00.534Z,7.03
2019-05-16T06:45:35.117Z,9.20
2019-05-16T06:48:10.056Z,7.53
2019-05-16T06:50:42.026Z,10.93
2019-05-16T06:53:13.877Z,9.13
2019-05-16T06:55:49.744Z,18.87
2019-05-16T06:58:24.529Z,19.10
2019-05-16T07:00:55.307Z,26.13
2019-05-16T07:03:26.271Z,12.33
2019-05-16T07:05:56.770Z,20.13
2019-05-16T07:08:27.329Z,25.07
2019-05-16T07:11:02.314Z,18.97
2019-05-16T07:13:32.972Z,16.63
2019-05-16T07:16:03.499Z,20.47
2019-05-16T07:18:34.006Z,14.47
2019-05-16T07:21:04.765Z,15.07
2019-05-16T07:23:35.382Z,22.10
2019-05-16T07:26:06.038Z,17.30
2019-05-16T07:28:36.596Z,19.13
2019-05-16T07:31:17.746Z,16.70
2019-05-16T07:33:40.673Z,14.10
2019-05-16T07:36:11.496Z,18.47
2019-05-16T07:38:42.062Z,21.77
2019-05-16T07:41:14.040Z,20.47
2019-05-16T07:43:44.848Z,18.20
2019-05-16T07:46:15.685Z,21.50
2019-05-16T07:48:46.191Z,21.67
2019-05-16T07:51:16.761Z,17.43
2019-05-16T07:53:47.323Z,21.23
2019-05-16T07:56:20.451Z,19.03
2019-05-16T07:58:50.874Z,21.20
2019-05-16T08:01:21.616Z,33.20
2019-05-16T08:03:54.089Z,27.27
2019-05-16T08:06:24.871Z,40.97
2019-05-16T08:08:55.448Z,27.80
2019-05-16T08:11:26.076Z,24.00
2019-05-16T08:13:56.540Z,29.67
2019-05-16T08:16:27.108Z,34.37
2019-05-16T08:18:57.729Z,25.30
2019-05-16T08:21:30.703Z,19.90
2019-05-16T08:26:40.040Z,23.93
2019-05-16T08:29:13.061Z,19.77
2019-05-16T08:31:42.990Z,16.60
2019-05-16T08:34:14.001Z,15.70
2019-05-16T08:36:44.493Z,13.73
2019-05-16T08:39:15.098Z,14.20
2019-05-16T08:41:45.686Z,15.17
2019-05-16T08:44:16.247Z,15.03
2019-05-16T08:46:53.178Z,15.27
2019-05-16T08:49:22.113Z,12.13
2019-05-16T08:51:53.377Z,14.63
2019-05-16T08:54:23.790Z,9.73
2019-05-16T08:56:54.341Z,11.40
2019-05-16T08:59:24.978Z,8.30
2019-05-16T09:01:58.144Z,6.30
2019-05-16T09:04:33.346Z,5.47
2019-05-16T09:07:01.998Z,7.77
2019-05-16T09:09:42.644Z,5.90
2019-05-16T09:10:35.668Z,25.97
2019-05-16T09:12:07.717Z,5.47
2019-05-16T09:14:39.068Z,5.40
2019-05-16T09:17:09.337Z,6.37
2019-05-16T09:19:39.879Z,7.40
2019-05-16T09:22:10.453Z,10.67
2019-05-16T09:24:41.011Z,6.13
2019-05-16T09:27:13.061Z,5.63
2019-05-16T09:29:44.167Z,4.87
2019-05-16T09:32:17.943Z,5.77
2019-05-16T09:34:48.020Z,6.03
2019-05-16T09:37:18.853Z,7.30
2019-05-16T09:39:51.978Z,6.67
2019-05-16T09:42:23.996Z,6.53
2019-05-16T09:44:54.660Z,4.03
2019-05-16T09:47:28.296Z,3.97
2019-05-16T09:49:58.634Z,5.33
2019-05-16T09:52:29.160Z,6.03
2019-05-16T09:55:00.109Z,4.67
2019-05-16T09:57:30.659Z,4.60
2019-05-16T10:00:01.218Z,4.90
2019-05-16T10:02:31.848Z,5.30
2019-05-16T10:05:02.745Z,5.40
2019-05-16T10:07:33.520Z,4.40
2019-05-16T10:10:06.400Z,5.67
2019-05-16T10:12:37.088Z,4.40
2019-05-16T10:15:08.827Z,4.27
2019-05-16T10:17:39.316Z,5.73
2019-05-16T10:20:11.155Z,5.83
2019-05-16T10:22:41.767Z,4.87
2019-05-16T10:25:12.533Z,5.40
2019-05-16T10:27:43.158Z,4.67
2019-05-16T10:30:13.994Z,6.07
2019-05-16T10:32:44.709Z,4.30
2019-05-16T10:35:15.607Z,4.67
2019-05-16T10:37:47.053Z,4.70
2019-05-16T10:40:18.656Z,5.07
2019-05-16T10:42:49.290Z,5.13
2019-05-16T10:45:19.868Z,5.87
2019-05-16T10:47:50.692Z,6.10
2019-05-16T10:50:21.398Z,5.07
2019-05-16T10:53:13.356Z,5.70
2019-05-16T10:55:24.595Z,8.77
2019-05-16T10:57:56.753Z,4.60
2019-05-16T11:00:57.626Z,5.07
2019-05-16T11:02:59.905Z,5.47
2019-05-16T11:05:36.017Z,5.80
2019-05-16T11:08:02.943Z,5.77
2019-05-16T11:10:33.757Z,4.70
2019-05-16T11:13:04.357Z,4.53
2019-05-16T11:15:37.298Z,4.10
2019-05-16T11:18:07.392Z,3.30
2019-05-16T11:20:38.081Z,4.10
2019-05-16T11:23:08.625Z,5.63
2019-05-16T11:25:39.299Z,8.93
2019-05-16T11:28:10.214Z,5.97
2019-05-16T11:30:41.186Z,5.93
2019-05-16T11:33:12.247Z,5.10
2019-05-16T11:35:42.783Z,4.70
2019-05-16T11:38:13.491Z,7.33
2019-05-16T11:40:44.070Z,5.90
2019-05-16T11:43:19.155Z,5.63
2019-05-16T11:45:47.847Z,4.77
2019-05-16T11:48:18.411Z,5.30
2019-05-16T11:50:49.071Z,5.80
2019-05-16T11:53:19.580Z,5.73
2019-05-16T11:55:56.138Z,5.23
2019-05-16T11:58:22.666Z,4.00
2019-05-16T12:00:53.299Z,3.90
2019-05-16T12:03:23.838Z,4.57
2019-05-16T12:05:54.451Z,3.90
2019-05-16T12:08:26.452Z,4.97
2019-05-16T12:11:09.292Z,3.73
2019-05-16T12:13:39.789Z,4.43
2019-05-16T12:16:10.376Z,4.77
2019-05-16T12:18:40.927Z,7.17
2019-05-16T12:21:11.452Z,7.63
2019-05-16T12:23:41.806Z,7.53
2019-05-16T12:26:17.552Z,8.37
2019-05-16T12:28:47.200Z,6.97
2019-05-16T12:31:17.848Z,6.20
2019-05-16T12:33:48.336Z,5.80
2019-05-16T12:36:18.818Z,6.37
2019-05-16T12:38:49.373Z,5.47
2019-05-16T12:41:19.934Z,5.17
2019-05-16T12:43:53.543Z,5.77
2019-05-16T12:46:22.836Z,6.37
2019-05-16T12:48:53.446Z,7.07
2019-05-16T12:51:26.286Z,9.90
2019-05-16T12:53:57.248Z,6.77
2019-05-16T12:56:27.848Z,7.73
2019-05-16T12:58:58.336Z,7.57
2019-05-16T13:01:34.046Z,7.73
2019-05-16T13:04:03.280Z,8.33
2019-05-16T13:06:37.085Z,8.47
2019-05-16T13:09:09.110Z,7.37
2019-05-16T13:11:39.620Z,6.60
2019-05-16T13:14:11.411Z,8.90
2019-05-16T13:16:42.226Z,7.83
2019-05-16T13:19:18.543Z,8.70
2019-05-16T13:21:49.192Z,7.40
2019-05-16T13:24:19.682Z,5.77
2019-05-16T13:26:50.394Z,5.50
2019-05-16T13:29:27.315Z,7.07
2019-05-16T13:31:57.088Z,7.37
2019-05-16T13:34:30.849Z,5.80
2019-05-16T13:37:07.628Z,4.70
2019-05-16T13:39:41.039Z,6.00
2019-05-16T13:42:16.826Z,5.80
2019-05-16T13:44:57.473Z,7.03
2019-05-16T13:47:34.293Z,6.10
2019-05-16T13:50:12.306Z,6.40
2019-05-16T13:52:48.055Z,5.53
2019-05-16T13:55:21.732Z,4.40
2019-05-16T13:57:52.684Z,6.30
2019-05-16T14:00:24.029Z,4.30
2019-05-16T14:02:55.742Z,5.87
2019-05-16T14:05:26.852Z,4.43
2019-05-16T14:07:58.799Z,5.70
2019-05-16T14:10:32.522Z,4.63
2019-05-16T14:13:03.038Z,5.17
2019-05-16T14:15:36.500Z,5.00
2019-05-16T14:18:07.661Z,2.87
2019-05-16T14:20:46.944Z,4.63
2019-05-16T14:23:18.792Z,3.80
2019-05-16T14:25:49.424Z,3.57
2019-05-16T14:28:20.213Z,5.70
2019-05-16T14:30:50.734Z,6.50
2019-05-16T14:33:22.345Z,7.10
2019-05-16T14:35:53.025Z,6.93
2019-05-16T14:38:23.760Z,6.80
2019-05-16T14:40:57.106Z,8.17
2019-05-16T14:43:29.648Z,6.47
2019-05-16T14:46:00.347Z,6.33
2019-05-16T14:48:30.952Z,4.67
2019-05-16T14:51:01.624Z,4.73
2019-05-16T14:53:32.225Z,6.93
2019-05-16T14:56:02.788Z,6.37
2019-05-16T14:58:33.365Z,6.37
2019-05-16T15:01:08.241Z,6.60
2019-05-16T15:03:38.893Z,6.63
2019-05-16T15:06:09.569Z,7.10
2019-05-16T15:08:40.067Z,7.33
2019-05-16T15:11:10.778Z,6.50
2019-05-16T15:13:41.525Z,6.97
2019-05-16T15:16:16.986Z,6.90
2019-05-16T15:18:52.002Z,5.93
2019-05-16T15:21:26.137Z,7.83
2019-05-16T15:24:00.244Z,6.60
2019-05-16T15:26:30.887Z,6.90
2019-05-16T15:29:01.407Z,6.40
2019-05-16T15:31:32.031Z,10.63
2019-05-16T15:34:02.707Z,7.47
2019-05-16T15:36:37.115Z,10.27
2019-05-16T15:39:09.064Z,9.90
2019-05-16T15:41:39.690Z,8.97
2019-05-16T15:44:16.933Z,11.77
2019-05-16T15:46:49.643Z,10.17
2019-05-16T15:49:21.350Z,10.47
2019-05-16T15:51:52.076Z,10.13
2019-05-16T15:54:29.836Z,8.07
2019-05-16T15:57:03.552Z,6.90
2019-05-16T15:59:34.363Z,9.17
2019-05-16T16:02:08.109Z,8.43
2019-05-16T16:04:38.776Z,9.33
2019-05-16T16:07:09.437Z,9.27
2019-05-16T16:09:40.145Z,7.57
2019-05-16T16:12:14.030Z,7.63
2019-05-16T16:14:46.727Z,9.80
2019-05-16T16:17:18.999Z,8.67
2019-05-16T16:19:51.614Z,9.43
2019-05-16T16:22:26.904Z,9.67
2019-05-16T16:25:00.028Z,8.27
2019-05-16T16:27:31.891Z,9.40
2019-05-16T16:30:03.706Z,8.60
2019-05-16T16:32:38.443Z,8.43
2019-05-16T16:35:09.287Z,9.60
2019-05-16T16:37:39.888Z,10.53
2019-05-16T16:40:12.509Z,10.03
2019-05-16T16:42:44.257Z,10.33
2019-05-16T16:45:21.837Z,10.67
2019-05-16T16:47:52.594Z,10.20
2019-05-16T16:50:23.446Z,10.40
2019-05-16T16:52:56.590Z,10.37
2019-05-16T16:55:27.639Z,10.50
2019-05-16T16:58:02.033Z,11.40
2019-05-16T17:00:33.816Z,11.27
2019-05-16T17:03:09.251Z,11.60
2019-05-16T17:05:37.291Z,13.07
2019-05-16T17:08:10.537Z,12.47
2019-05-16T17:10:48.166Z,12.23
2019-05-16T17:13:23.536Z,14.10
2019-05-16T17:15:56.679Z,13.50
2019-05-16T17:18:31.840Z,14.20
2019-05-16T17:21:02.483Z,15.27
2019-05-16T17:23:34.381Z,14.57
2019-05-16T17:26:07.328Z,14.63
2019-05-16T17:28:42.014Z,16.03
2019-05-16T17:31:16.574Z,17.27
2019-05-16T17:33:49.474Z,14.70
2019-05-16T17:36:20.123Z,15.77
2019-05-16T17:38:53.358Z,15.33
2019-05-16T17:41:27.925Z,15.30
2019-05-16T17:43:58.598Z,16.40
2019-05-16T17:46:37.439Z,15.40
2019-05-16T17:49:07.389Z,15.90
2019-05-16T17:51:39.407Z,14.17
2019-05-16T17:54:10.146Z,16.17
2019-05-16T17:56:52.891Z,14.90
2019-05-16T17:59:28.034Z,16.50
2019-05-16T18:02:03.460Z,13.47
2019-05-16T18:04:40.977Z,13.47
2019-05-16T18:07:12.391Z,18.27
2019-05-16T18:09:45.423Z,16.13
2019-05-16T18:12:19.198Z,14.77
2019-05-16T18:14:53.365Z,14.97
2019-05-16T18:17:29.886Z,16.47
2019-05-16T18:20:22.368Z,16.67
2019-05-16T18:22:56.802Z,19.17
2019-05-16T18:25:28.493Z,19.57
2019-05-16T18:27:59.241Z,20.67
2019-05-16T18:30:36.680Z,20.30
2019-05-16T18:33:07.773Z,22.43
2019-05-16T18:35:39.646Z,22.00
2019-05-16T18:38:12.105Z,26.63
2019-05-16T18:40:44.152Z,27.13
2019-05-16T18:43:16.646Z,28.87
2019-05-16T18:45:50.656Z,26.93
2019-05-16T18:48:27.028Z,29.10
2019-05-16T18:51:00.477Z,25.40
2019-05-16T18:53:37.364Z,26.03
2019-05-16T18:56:16.602Z,29.50
2019-05-16T18:59:02.729Z,32.80
2019-05-16T19:01:37.532Z,29.50
2019-05-16T19:04:13.440Z,30.40
2019-05-16T19:06:46.816Z,32.73
2019-05-16T19:09:22.346Z,29.80
2019-05-16T19:11:53.616Z,32.17
2019-05-16T19:14:28.652Z,30.87
2019-05-16T19:16:59.435Z,33.60
2019-05-16T19:19:33.280Z,31.33
2019-05-16T19:22:07.097Z,27.40
2019-05-16T19:24:48.181Z,35.27
2019-05-16T19:27:29.578Z,39.73
2019-05-16T19:30:00.760Z,45.23
2019-05-16T19:32:39.608Z,44.77
2019-05-16T19:35:20.501Z,44.40
2019-05-16T19:37:53.396Z,46.63
2019-05-16T19:40:30.133Z,44.37
2019-05-16T19:43:06.980Z,43.53
2019-05-16T19:45:47.965Z,43.27
2019-05-16T19:48:27.334Z,40.97
2019-05-16T19:51:00.959Z,40.07
2019-05-16T19:53:33.042Z,39.67
2019-05-16T19:56:08.611Z,42.10
2019-05-16T19:58:42.248Z,43.57
2019-05-16T20:01:16.834Z,40.83
2019-05-16T20:03:56.371Z,40.50
2019-05-16T20:06:27.745Z,43.43
2019-05-16T20:09:02.965Z,44.83
2019-05-16T20:11:39.580Z,46.73
2019-05-16T20:14:19.583Z,46.73
2019-05-16T20:16:56.662Z,47.30
2019-05-16T20:19:36.503Z,48.43
2019-05-16T20:22:10.627Z,46.23
2019-05-16T20:24:41.608Z,42.03
2019-05-16T20:27:12.246Z,42.43
2019-05-16T20:29:43.319Z,37.73
2019-05-16T20:32:16.871Z,41.40
2019-05-16T20:34:52.347Z,37.07
2019-05-16T20:37:23.071Z,34.80
2019-05-16T20:39:54.910Z,34.10
2019-05-16T20:42:27.270Z,37.10
2019-05-16T20:44:59.213Z,39.50
2019-05-16T20:47:30.007Z,42.17
2019-05-16T20:50:00.809Z,42.20
2019-05-16T20:52:32.597Z,39.50
2019-05-16T20:55:03.327Z,37.87
2019-05-16T20:57:37.954Z,38.27
2019-05-16T21:00:09.684Z,36.30
2019-05-16T21:02:40.572Z,34.40
2019-05-16T21:05:11.812Z,34.53
2019-05-16T21:07:42.511Z,32.17
2019-05-16T21:10:17.123Z,33.17
2019-05-16T21:12:47.847Z,34.73
2019-05-16T21:15:18.736Z,32.23
2019-05-16T21:17:49.260Z,31.20
2019-05-16T21:20:20.059Z,30.27
2019-05-16T21:22:50.543Z,33.77
2019-05-16T21:25:21.173Z,32.27
2019-05-16T21:27:51.842Z,31.63
2019-05-16T21:30:22.642Z,30.23
2019-05-16T21:32:53.282Z,30.57
2019-05-16T21:35:23.891Z,33.23
2019-05-16T21:37:54.397Z,32.50
2019-05-16T21:40:26.486Z,31.40
2019-05-16T21:42:58.812Z,32.97
2019-05-16T21:45:29.527Z,33.90
2019-05-16T21:48:00.101Z,34.20
2019-05-16T21:50:30.522Z,36.47
2019-05-16T21:53:00.996Z,35.60
2019-05-16T21:55:31.636Z,32.47
2019-05-16T21:58:02.290Z,32.17
2019-05-16T22:00:38.897Z,34.73
2019-05-16T22:03:10.422Z,31.40
2019-05-16T22:05:41.087Z,28.27
2019-05-16T22:08:11.953Z,30.50
2019-05-16T22:10:42.717Z,30.23
2019-05-16T22:13:14.172Z,31.50
2019-05-16T22:15:46.425Z,30.50
2019-05-16T22:18:16.982Z,30.23
2019-05-16T22:20:49.339Z,28.97
2019-05-16T22:23:19.945Z,29.50
2019-05-16T22:25:50.851Z,27.73
2019-05-16T22:28:21.363Z,28.57
2019-05-16T22:30:52.072Z,29.00
2019-05-16T22:33:22.604Z,29.40
2019-05-16T22:35:53.218Z,27.27
2019-05-16T22:38:26.149Z,26.00
2019-05-16T22:40:56.330Z,25.20
2019-05-16T22:43:26.868Z,25.83
2019-05-16T22:45:57.615Z,24.53
2019-05-16T22:48:28.153Z,24.50
2019-05-16T22:50:58.806Z,25.80
2019-05-16T22:53:29.442Z,27.13
2019-05-16T22:56:00.027Z,24.63
2019-05-16T22:58:30.557Z,25.60
2019-05-16T23:01:01.488Z,23.50
2019-05-16T23:03:32.041Z,25.33
2019-05-16T23:06:02.603Z,24.03
2019-05-16T23:08:33.142Z,25.23
2019-05-16T23:11:03.632Z,24.03
2019-05-16T23:13:34.193Z,26.53
2019-05-16T23:16:06.772Z,26.67
2019-05-16T23:18:37.641Z,26.33
2019-05-16T23:21:08.434Z,27.63
2019-05-16T23:23:39.086Z,26.47
2019-05-16T23:26:09.631Z,25.90
2019-05-16T23:28:40.617Z,25.20
2019-05-16T23:31:11.564Z,26.97
2019-05-16T23:33:42.056Z,24.47
2019-05-16T23:36:12.576Z,22.90
2019-05-16T23:38:43.147Z,25.47
2019-05-16T23:41:13.598Z,25.03
2019-05-16T23:43:44.124Z,27.43
2019-05-16T23:46:16.498Z,26.67
2019-05-16T23:48:47.369Z,27.10
2019-05-16T23:51:18.012Z,29.10
2019-05-16T23:53:49.251Z,25.63
2019-05-16T23:56:19.804Z,24.57
2019-05-16T23:58:50.290Z,23.10
